createdAt,value
2017-07-28T00:00:40.123Z,99.98
2017-07-28T00:01:20.606Z,99.88
2017-07-28T00:02:01.125Z,99.98
2017-07-28T00:02:41.639Z,99.98
2017-07-28T00:03:22.110Z,99.78
2017-07-28T00:04:02.600Z,99.88
2017-07-28T00:04:43.110Z,99.59
2017-07-28T00:05:23.617Z,99.88
2017-07-28T00:06:04.126Z,99.99
2017-07-28T00:06:44.659Z,99.99
2017-07-28T00:07:25.202Z,99.99
2017-07-28T00:08:05.695Z,99.69
2017-07-28T00:08:46.170Z,99.69
2017-07-28T00:09:26.736Z,99.16
2017-07-28T00:10:07.195Z,99.16
2017-07-28T00:10:47.692Z,99.54
2017-07-28T00:11:28.161Z,98.49
2017-07-28T00:12:08.651Z,98.58
2017-07-28T00:12:49.146Z,98.97
2017-07-28T00:13:29.615Z,98.39
2017-07-28T00:14:10.123Z,99.06
2017-07-28T00:14:50.589Z,98.29
2017-07-28T00:15:31.151Z,98.39
2017-07-28T00:16:11.645Z,98.39
2017-07-28T00:16:52.117Z,98.77
2017-07-28T00:17:32.603Z,98.87
2017-07-28T00:18:13.108Z,98.77
2017-07-28T00:18:53.600Z,98.77
2017-07-28T00:19:34.102Z,98.77
2017-07-28T00:20:14.578Z,98.54
2017-07-28T00:20:55.105Z,99.21
2017-07-28T00:21:35.597Z,98.72
2017-07-28T00:22:16.141Z,98.77
2017-07-28T00:22:56.638Z,98.58
2017-07-28T00:23:37.174Z,98.58
2017-07-28T00:24:17.714Z,98.68
2017-07-28T00:24:58.209Z,98.97
2017-07-28T00:25:38.721Z,98.68
2017-07-28T00:26:19.214Z,98.97
2017-07-28T00:26:59.897Z,99.06
2017-07-28T00:27:40.371Z,99.06
2017-07-28T00:28:20.881Z,99.06
2017-07-28T00:29:01.364Z,98.29
2017-07-28T00:29:41.869Z,98.58
2017-07-28T00:30:22.391Z,98.49
2017-07-28T00:31:02.911Z,99.06
2017-07-28T00:31:43.378Z,98.87
2017-07-28T00:32:23.850Z,98.58
2017-07-28T00:33:04.340Z,98.97
2017-07-28T00:33:44.851Z,98.97
2017-07-28T00:34:25.349Z,98.72
2017-07-28T00:35:05.900Z,98.87
2017-07-28T00:35:46.338Z,99.16
2017-07-28T00:36:27.055Z,98.29
2017-07-28T00:37:07.410Z,98.14
2017-07-28T00:37:47.850Z,98.54
2017-07-28T00:38:28.384Z,98.72
2017-07-28T00:39:08.858Z,98.63
2017-07-28T00:39:49.366Z,98.54
2017-07-28T00:40:29.861Z,98.72
2017-07-28T00:41:10.372Z,98.63
2017-07-28T00:41:50.837Z,98.63
2017-07-28T00:42:31.415Z,98.82
2017-07-28T00:43:11.884Z,98.63
2017-07-28T00:43:52.404Z,98.54
2017-07-28T00:44:32.911Z,98.54
2017-07-28T00:45:13.396Z,98.72
2017-07-28T00:45:53.859Z,98.44
2017-07-28T00:46:34.346Z,98.92
2017-07-28T00:47:14.850Z,98.92
2017-07-28T00:47:55.304Z,98.54
2017-07-28T00:48:35.815Z,98.82
2017-07-28T00:49:16.323Z,98.63
2017-07-28T00:49:56.861Z,98.72
2017-07-28T00:50:37.356Z,98.44
2017-07-28T00:51:17.857Z,98.24
2017-07-28T00:51:58.363Z,98.49
2017-07-28T00:52:38.839Z,98.14
2017-07-28T00:53:19.313Z,98.14
2017-07-28T00:53:59.803Z,98.24
2017-07-28T00:54:40.335Z,98.14
2017-07-28T00:55:20.802Z,98.14
2017-07-28T00:56:01.465Z,97.96
2017-07-28T00:56:41.988Z,97.96
2017-07-28T00:57:22.477Z,98.24
2017-07-28T00:58:02.985Z,98.44
2017-07-28T00:58:43.503Z,99.01
2017-07-28T00:59:24.008Z,98.92
2017-07-28T01:00:04.483Z,98.72
2017-07-28T01:00:44.976Z,98.24
2017-07-28T01:01:25.458Z,98.14
2017-07-28T01:02:05.982Z,97.96
2017-07-28T01:02:46.457Z,98.14
2017-07-28T01:03:26.990Z,98.24
2017-07-28T01:04:07.452Z,98.34
2017-07-28T01:04:47.962Z,98.92
2017-07-28T01:05:28.472Z,98.44
2017-07-28T01:06:08.959Z,98.44
2017-07-28T01:06:49.464Z,98.24
2017-07-28T01:07:29.947Z,98.14
2017-07-28T01:08:10.436Z,97.86
2017-07-28T01:08:50.935Z,97.67
2017-07-28T01:09:31.444Z,97.67
2017-07-28T01:10:11.955Z,97.96
2017-07-28T01:10:52.398Z,98.19
2017-07-28T01:11:32.914Z,98.1
2017-07-28T01:12:13.388Z,98.19
2017-07-28T01:12:53.924Z,98.58
2017-07-28T01:13:34.396Z,98.34
2017-07-28T01:14:14.888Z,97.86
2017-07-28T01:14:55.388Z,97.86
2017-07-28T01:15:35.887Z,97.76
2017-07-28T01:16:16.379Z,97.19
2017-07-28T01:16:56.880Z,97.42
2017-07-28T01:17:37.446Z,97.33
2017-07-28T01:18:17.878Z,97.33
2017-07-28T01:18:58.351Z,97.42
2017-07-28T01:19:38.944Z,97.71
2017-07-28T01:20:19.434Z,98.19
2017-07-28T01:20:59.924Z,97.33
2017-07-28T01:21:40.434Z,97.24
2017-07-28T01:22:21.701Z,96.75
2017-07-28T01:23:02.177Z,96.89
2017-07-28T01:23:42.703Z,96.61
2017-07-28T01:24:23.239Z,96.12
2017-07-28T01:25:03.731Z,95.55
2017-07-28T01:25:44.272Z,95.65
2017-07-28T01:26:24.709Z,95.26
2017-07-28T01:27:05.229Z,95.17
2017-07-28T01:27:45.754Z,95.02
2017-07-28T01:28:26.278Z,95.6
2017-07-28T01:29:06.768Z,95.6
2017-07-28T01:29:47.265Z,95.45
2017-07-28T01:30:27.727Z,95.55
2017-07-28T01:31:08.204Z,95.36
2017-07-28T01:31:48.700Z,94.97
2017-07-28T01:32:29.201Z,94.68
2017-07-28T01:33:09.701Z,94.97
2017-07-28T01:33:50.219Z,93.53
2017-07-28T01:34:30.727Z,93.77
2017-07-28T01:35:11.251Z,93.72
2017-07-28T01:35:51.670Z,94.1
2017-07-28T01:36:32.207Z,94.01
2017-07-28T01:37:12.684Z,94.49
2017-07-28T01:37:53.193Z,93.53
2017-07-28T01:38:33.699Z,94.2
2017-07-28T01:39:14.209Z,94.1
2017-07-28T01:39:54.704Z,93.15
2017-07-28T01:40:35.161Z,93.15
2017-07-28T01:41:15.660Z,93.15
2017-07-28T01:41:56.166Z,93.15
2017-07-28T01:42:36.691Z,93.05
2017-07-28T01:43:17.236Z,93.05
2017-07-28T01:43:57.715Z,93.24
2017-07-28T01:44:38.221Z,91.99
2017-07-28T01:45:18.687Z,92.28
2017-07-28T01:45:59.270Z,92.66
2017-07-28T01:46:39.758Z,92.66
2017-07-28T01:47:20.249Z,92.66
2017-07-28T01:48:00.765Z,92.28
2017-07-28T01:48:41.306Z,91.89
2017-07-28T01:49:21.774Z,92.47
2017-07-28T01:50:02.265Z,92.47
2017-07-28T01:50:42.849Z,92.38
2017-07-28T01:51:23.281Z,92.38
2017-07-28T01:52:03.789Z,92.47
2017-07-28T01:52:44.288Z,93.15
2017-07-28T01:53:24.830Z,92.47
2017-07-28T01:54:05.333Z,93.15
2017-07-28T01:54:45.817Z,93.15
2017-07-28T01:55:26.315Z,92.66
2017-07-28T01:56:06.810Z,92.85
2017-07-28T01:56:47.293Z,92.47
2017-07-28T01:57:27.830Z,92.66
2017-07-28T01:58:08.291Z,92.85
2017-07-28T01:58:48.792Z,92.81
2017-07-28T01:59:29.327Z,92.85
2017-07-28T02:00:09.878Z,92.85
2017-07-28T02:00:50.336Z,93.43
2017-07-28T02:02:38.394Z,93.15
2017-07-28T02:03:18.911Z,93
2017-07-28T02:03:59.451Z,93.05
2017-07-28T02:04:39.996Z,92.76
2017-07-28T02:05:20.483Z,92.47
2017-07-28T02:06:00.988Z,92.76
2017-07-28T02:06:41.522Z,92.52
2017-07-28T02:07:21.977Z,92.38
2017-07-28T02:08:02.468Z,92.47
2017-07-28T02:08:43.001Z,92.76
2017-07-28T02:09:23.516Z,92.76
2017-07-28T02:10:03.991Z,92.76
2017-07-28T02:10:44.535Z,93.15
2017-07-28T02:11:24.985Z,92.76
2017-07-28T02:12:05.515Z,92.76
2017-07-28T02:12:46.003Z,93.05
2017-07-28T02:13:26.501Z,93.15
2017-07-28T02:14:06.975Z,93.05
2017-07-28T02:14:47.493Z,93.05
2017-07-28T02:15:27.962Z,93.1
2017-07-28T02:16:08.507Z,93.68
2017-07-28T02:16:48.962Z,93.53
2017-07-28T02:17:29.438Z,93.24
2017-07-28T02:18:09.909Z,93.29
2017-07-28T02:18:50.434Z,93.33
2017-07-28T02:19:30.911Z,93.15
2017-07-28T02:20:11.429Z,93.24
2017-07-28T02:20:51.942Z,93.05
2017-07-28T02:21:32.450Z,92.76
2017-07-28T02:22:12.966Z,92.47
2017-07-28T02:22:53.473Z,92.76
2017-07-28T02:23:33.901Z,92.76
2017-07-28T02:24:14.499Z,92.28
2017-07-28T02:24:55.016Z,92.18
2017-07-28T02:25:35.461Z,92.18
2017-07-28T02:26:15.974Z,92.38
2017-07-28T02:26:56.432Z,92.66
2017-07-28T02:27:36.947Z,93.15
2017-07-28T02:28:17.461Z,93.33
2017-07-28T02:28:57.947Z,93.24
2017-07-28T02:29:38.427Z,93.72
2017-07-28T02:30:18.924Z,93.15
2017-07-28T02:30:59.427Z,93.24
2017-07-28T02:31:39.907Z,93.15
2017-07-28T02:32:20.449Z,93.62
2017-07-28T02:33:00.956Z,93.33
2017-07-28T02:33:41.421Z,93.33
2017-07-28T02:34:21.957Z,93.05
2017-07-28T02:35:02.450Z,93.24
2017-07-28T02:35:42.997Z,93.05
2017-07-28T02:36:23.492Z,92.85
2017-07-28T02:37:04.056Z,92.76
2017-07-28T02:37:44.510Z,92.47
2017-07-28T02:38:25.023Z,92.28
2017-07-28T02:39:05.527Z,93.05
2017-07-28T02:39:46.014Z,93.15
2017-07-28T02:40:26.521Z,92.95
2017-07-28T02:41:07.061Z,93.24
2017-07-28T02:41:47.523Z,93.15
2017-07-28T02:42:27.988Z,93.53
2017-07-28T02:43:08.527Z,93.77
2017-07-28T02:43:49.085Z,94.1
2017-07-28T02:44:29.506Z,93.82
2017-07-28T02:45:10.023Z,94.2
2017-07-28T02:45:50.564Z,93.43
2017-07-28T02:46:31.033Z,93.82
2017-07-28T02:47:11.486Z,94.3
2017-07-28T02:47:52.028Z,93.53
2017-07-28T02:48:32.528Z,94.01
2017-07-28T02:49:12.991Z,93.62
2017-07-28T02:49:53.504Z,93.62
2017-07-28T02:50:34.012Z,93.72
2017-07-28T02:51:14.492Z,94.1
2017-07-28T02:51:54.988Z,93.91
2017-07-28T02:52:35.464Z,93.33
2017-07-28T02:53:15.949Z,93.24
2017-07-28T02:53:56.481Z,93.33
2017-07-28T02:54:36.940Z,93.24
2017-07-28T02:55:17.458Z,93.15
2017-07-28T02:55:57.940Z,94.2
2017-07-28T02:56:38.425Z,93.68
2017-07-28T02:57:18.934Z,93.53
2017-07-28T02:57:59.428Z,94.25
2017-07-28T02:58:39.985Z,95.12
2017-07-28T02:59:20.479Z,95.12
2017-07-28T03:00:00.954Z,95.21
2017-07-28T03:00:41.426Z,95.4
2017-07-28T03:01:21.964Z,95.4
2017-07-28T03:02:02.497Z,95.6
2017-07-28T03:02:42.937Z,95.6
2017-07-28T03:03:23.582Z,94.92
2017-07-28T03:04:04.035Z,95.6
2017-07-28T03:04:44.526Z,95.5
2017-07-28T03:05:25.023Z,95.4
2017-07-28T03:06:05.513Z,95.4
2017-07-28T03:06:45.986Z,95.21
2017-07-28T03:07:26.553Z,95.12
2017-07-28T03:08:07.001Z,95.89
2017-07-28T03:08:47.463Z,95.5
2017-07-28T03:09:28.106Z,96.03
2017-07-28T03:10:08.572Z,96.13
2017-07-28T03:10:49.107Z,96.47
2017-07-28T03:11:29.610Z,96.13
2017-07-28T03:12:10.145Z,95.5
2017-07-28T03:12:50.623Z,95.7
2017-07-28T03:13:31.101Z,95.5
2017-07-28T03:14:11.608Z,95.12
2017-07-28T03:14:52.112Z,95.6
2017-07-28T03:15:32.573Z,95.6
2017-07-28T03:16:13.109Z,95.31
2017-07-28T03:16:53.522Z,95.6
2017-07-28T03:17:34.034Z,95.31
2017-07-28T03:19:33.221Z,95.21
2017-07-28T03:20:13.702Z,95.21
2017-07-28T03:20:54.168Z,95.02
2017-07-28T03:21:34.685Z,95.21
2017-07-28T03:22:15.252Z,95.12
2017-07-28T03:22:55.759Z,95.02
2017-07-28T03:23:36.267Z,95.31
2017-07-28T03:24:16.742Z,95.31
2017-07-28T03:24:57.256Z,94.73
2017-07-28T03:25:37.761Z,94.54
2017-07-28T03:26:18.268Z,94.73
2017-07-28T03:26:58.717Z,95.21
2017-07-28T03:27:39.222Z,95.02
2017-07-28T03:28:19.712Z,95.12
2017-07-28T03:29:00.204Z,95.21
2017-07-28T03:29:40.713Z,95.31
2017-07-28T03:30:21.197Z,95.55
2017-07-28T03:31:01.673Z,95.12
2017-07-28T03:31:42.196Z,95.02
2017-07-28T03:32:22.676Z,94.68
2017-07-28T03:33:03.207Z,94.68
2017-07-28T03:33:43.643Z,94.87
2017-07-28T03:34:24.207Z,94.3
2017-07-28T03:35:04.659Z,94.4
2017-07-28T03:35:45.203Z,93.96
2017-07-28T03:36:25.858Z,94.4
2017-07-28T03:37:06.357Z,94.15
2017-07-28T03:37:46.784Z,94.2
2017-07-28T03:38:27.302Z,94.1
2017-07-28T03:39:07.841Z,94.49
2017-07-28T03:39:48.276Z,94.49
2017-07-28T03:40:28.751Z,94.4
2017-07-28T03:41:09.243Z,94.2
2017-07-28T03:41:49.737Z,93.91
2017-07-28T03:42:30.199Z,93.43
2017-07-28T03:43:10.689Z,93.62
2017-07-28T03:43:51.218Z,93.72
2017-07-28T03:44:31.663Z,93.82
2017-07-28T03:45:12.165Z,93.05
2017-07-28T03:45:52.579Z,93.72
2017-07-28T03:46:33.085Z,93.72
2017-07-28T03:47:13.623Z,93.82
2017-07-28T03:47:54.091Z,93.91
2017-07-28T03:48:34.532Z,93.72
2017-07-28T03:49:15.049Z,93.82
2017-07-28T03:49:55.534Z,93.82
2017-07-28T03:50:36.036Z,94.1
2017-07-28T03:51:16.501Z,93.62
2017-07-28T03:51:56.983Z,93.91
2017-07-28T03:52:37.498Z,93.82
2017-07-28T03:53:17.968Z,94.1
2017-07-28T03:53:58.474Z,94.3
2017-07-28T03:54:38.988Z,94.2
2017-07-28T03:55:20.308Z,94.1
2017-07-28T03:55:59.969Z,94.2
2017-07-28T03:56:40.449Z,93.53
2017-07-28T03:57:20.932Z,93.62
2017-07-28T03:58:01.452Z,94.1
2017-07-28T03:58:41.986Z,93.91
2017-07-28T03:59:22.478Z,93.62
2017-07-28T04:00:02.995Z,93.82
2017-07-28T04:00:43.462Z,93.53
2017-07-28T04:01:23.936Z,93.82
2017-07-28T04:02:04.417Z,93.62
2017-07-28T04:02:45.135Z,93.33
2017-07-28T04:03:25.515Z,94.01
2017-07-28T04:04:06.083Z,93.72
2017-07-28T04:04:46.612Z,93.05
2017-07-28T04:05:27.059Z,93.33
2017-07-28T04:06:07.554Z,93.43
2017-07-28T04:06:48.074Z,92.85
2017-07-28T04:07:28.656Z,93.05
2017-07-28T04:08:09.068Z,93.15
2017-07-28T04:08:49.571Z,93.05
2017-07-28T04:09:30.061Z,93.05
2017-07-28T04:10:10.618Z,93.33
2017-07-28T04:10:51.137Z,93.24
2017-07-28T04:11:31.604Z,93.24
2017-07-28T04:12:12.189Z,92.95
2017-07-28T04:12:52.681Z,93.33
2017-07-28T04:13:33.159Z,93.15
2017-07-28T04:14:13.657Z,93.24
2017-07-28T04:14:54.157Z,93.43
2017-07-28T04:15:34.747Z,93.19
2017-07-28T04:16:15.258Z,93.15
2017-07-28T04:16:55.742Z,93.1
2017-07-28T04:17:36.264Z,93.58
2017-07-28T04:18:16.802Z,93.87
2017-07-28T04:18:57.286Z,93.58
2017-07-28T04:19:37.883Z,93.87
2017-07-28T04:20:18.391Z,93.77
2017-07-28T04:20:58.937Z,93.87
2017-07-28T04:21:39.430Z,93.96
2017-07-28T04:22:19.913Z,94.15
2017-07-28T04:23:00.430Z,94.45
2017-07-28T04:23:40.904Z,94.06
2017-07-28T04:24:21.379Z,95.02
2017-07-28T04:25:01.895Z,94.83
2017-07-28T04:25:42.352Z,94.92
2017-07-28T04:26:22.893Z,94.54
2017-07-28T04:27:03.431Z,94.83
2017-07-28T04:27:43.927Z,94.15
2017-07-28T04:28:24.413Z,94.64
2017-07-28T04:29:04.938Z,94.54
2017-07-28T04:29:45.453Z,94.73
2017-07-28T04:30:25.974Z,95.4
2017-07-28T04:31:06.457Z,95.31
2017-07-28T04:31:46.979Z,95.26
2017-07-28T04:32:27.464Z,95.55
2017-07-28T04:33:07.951Z,95.21
2017-07-28T04:33:48.469Z,95.31
2017-07-28T04:34:28.957Z,94.64
2017-07-28T04:35:09.448Z,94.83
2017-07-28T04:35:49.949Z,94.83
2017-07-28T04:36:30.477Z,95.21
2017-07-28T04:37:11.123Z,94.83
2017-07-28T04:37:51.609Z,94.64
2017-07-28T04:38:32.077Z,94.64
2017-07-28T04:39:12.550Z,95.21
2017-07-28T04:39:53.059Z,94.54
2017-07-28T04:40:33.573Z,94.83
2017-07-28T04:41:14.027Z,94.64
2017-07-28T04:41:54.527Z,94.73
2017-07-28T04:42:35.044Z,94.45
2017-07-28T04:43:15.521Z,93.96
2017-07-28T04:43:56.014Z,93.38
2017-07-28T04:44:36.514Z,93.72
2017-07-28T04:45:17.004Z,93.38
2017-07-28T04:45:57.558Z,93.68
2017-07-28T04:46:38.019Z,93.77
2017-07-28T04:47:18.541Z,93.38
2017-07-28T04:47:59.045Z,93.48
2017-07-28T04:48:39.512Z,93.82
2017-07-28T04:49:20.042Z,93.82
2017-07-28T04:50:00.558Z,93.91
2017-07-28T04:50:41.021Z,93.43
2017-07-28T04:51:21.521Z,94.1
2017-07-28T04:52:02.027Z,93.15
2017-07-28T04:52:42.570Z,93.24
2017-07-28T04:53:23.275Z,93.15
2017-07-28T04:54:03.798Z,93.43
2017-07-28T04:54:44.276Z,93.24
2017-07-28T04:55:24.759Z,93.33
2017-07-28T04:56:05.293Z,93.38
2017-07-28T04:56:45.747Z,93.29
2017-07-28T04:57:26.268Z,93.24
2017-07-28T04:58:06.785Z,93.29
2017-07-28T04:58:47.259Z,92.95
2017-07-28T04:59:27.767Z,93.15
2017-07-28T05:00:08.300Z,93.24
2017-07-28T05:00:48.886Z,92.66
2017-07-28T05:01:29.394Z,92.85
2017-07-28T05:02:09.912Z,92.57
2017-07-28T05:02:50.344Z,91.99
2017-07-28T05:03:30.888Z,91.8
2017-07-28T05:04:11.335Z,91.8
2017-07-28T05:04:51.826Z,92.08
2017-07-28T05:05:32.370Z,92.03
2017-07-28T05:06:12.847Z,91.17
2017-07-28T05:06:53.402Z,90.88
2017-07-28T05:07:33.878Z,90.97
2017-07-28T05:08:14.414Z,90.88
2017-07-28T05:08:54.907Z,91.31
2017-07-28T05:09:35.379Z,90.78
2017-07-28T05:10:15.857Z,91.36
2017-07-28T05:10:56.344Z,90.78
2017-07-28T05:11:36.856Z,90.97
2017-07-28T05:12:17.353Z,91.07
2017-07-28T05:12:57.833Z,92.52
2017-07-28T05:13:38.312Z,95.02
2017-07-28T05:14:18.860Z,98.1
2017-07-28T05:14:59.325Z,97.81
2017-07-28T05:15:39.897Z,97.42
2017-07-28T05:16:20.431Z,99.99
2017-07-28T05:17:00.926Z,98.77
2017-07-28T05:17:41.423Z,94.06
2017-07-28T05:18:21.905Z,94.73
2017-07-28T05:19:02.395Z,96.7
2017-07-28T05:19:42.898Z,93.72
2017-07-28T05:21:41.127Z,95.16
2017-07-28T05:23:39.246Z,93.72
2017-07-28T05:24:19.730Z,92.85
2017-07-28T05:25:00.251Z,91.79
2017-07-28T05:25:40.763Z,95.55
2017-07-28T05:26:21.291Z,93.72
2017-07-28T05:27:01.744Z,93.91
2017-07-28T05:27:42.280Z,95.74
2017-07-28T05:28:22.739Z,95.45
2017-07-28T05:29:03.294Z,94.29
2017-07-28T05:29:43.735Z,99.55
2017-07-28T05:30:24.218Z,97.04
2017-07-28T05:31:04.731Z,99.84
2017-07-28T05:31:45.218Z,98.39
2017-07-28T05:32:25.727Z,98.1
2017-07-28T05:33:06.208Z,94.34
2017-07-28T05:33:46.678Z,98
2017-07-28T05:34:27.196Z,99.99
2017-07-28T05:35:07.750Z,99.93
2017-07-28T05:35:48.193Z,99.88
2017-07-28T05:36:28.744Z,97.57
2017-07-28T05:37:09.242Z,95.59
2017-07-28T05:37:49.708Z,94.82
2017-07-28T05:38:30.276Z,93.19
2017-07-28T05:39:10.771Z,93.28
2017-07-28T05:39:51.304Z,91.06
2017-07-28T05:40:31.790Z,93.96
2017-07-28T05:41:12.436Z,98.29
2017-07-28T05:41:52.920Z,98.87
2017-07-28T05:42:33.624Z,96.85
2017-07-28T05:43:14.094Z,95.79
2017-07-28T05:43:54.580Z,90.88
2017-07-28T05:44:35.380Z,91.06
2017-07-28T05:45:16.257Z,92.13
2017-07-28T05:45:56.961Z,91.64
2017-07-28T05:46:37.453Z,95.11
2017-07-28T05:47:17.984Z,96.56
2017-07-28T05:47:58.554Z,94.82
2017-07-28T05:48:38.957Z,93.38
2017-07-28T05:49:19.420Z,93.96
2017-07-28T05:50:00.066Z,93.96
2017-07-28T05:50:40.467Z,93.57
2017-07-28T05:51:21.045Z,93.38
2017-07-28T05:52:01.548Z,91.26
2017-07-28T05:52:41.995Z,90.88
2017-07-28T05:53:22.486Z,91.45
2017-07-28T05:54:03.075Z,92.13
2017-07-28T05:54:43.614Z,92.8
2017-07-28T05:55:24.098Z,93.33
2017-07-28T05:56:04.611Z,94.87
2017-07-28T05:56:45.069Z,94.87
2017-07-28T05:57:25.561Z,92.56
2017-07-28T05:58:06.050Z,96.12
2017-07-28T05:58:46.808Z,95.93
2017-07-28T05:59:27.373Z,94.96
2017-07-28T06:00:07.843Z,98.25
2017-07-28T06:00:48.387Z,96.7
2017-07-28T06:01:28.890Z,92.08
2017-07-28T06:02:09.435Z,92.17
2017-07-28T06:02:49.934Z,93.04
2017-07-28T06:03:30.427Z,93.33
2017-07-28T06:04:11.181Z,92.56
2017-07-28T06:04:52.003Z,91.2
2017-07-28T06:05:32.686Z,91.88
2017-07-28T06:06:13.008Z,96.12
2017-07-28T06:06:53.576Z,97.67
2017-07-28T06:07:34.041Z,95.84
2017-07-28T06:08:14.514Z,96.61
2017-07-28T06:08:55.031Z,97.77
2017-07-28T06:09:35.517Z,96.8
2017-07-28T06:10:16.234Z,94.39
2017-07-28T06:10:56.736Z,93.18
2017-07-28T06:11:37.181Z,92.7
2017-07-28T06:12:17.693Z,97.42
2017-07-28T06:12:58.191Z,95.31
2017-07-28T06:13:38.688Z,89.51
2017-07-28T06:14:19.194Z,94.43
2017-07-28T06:14:59.689Z,98.34
2017-07-28T06:15:40.240Z,99.4
2017-07-28T06:16:20.722Z,96.7
2017-07-28T06:17:01.224Z,90.91
2017-07-28T06:17:41.743Z,88.69
2017-07-28T06:18:22.250Z,89.27
2017-07-28T06:19:02.692Z,86.86
2017-07-28T06:19:43.502Z,94.96
2017-07-28T06:20:23.954Z,95.68
2017-07-28T06:21:04.498Z,95.11
2017-07-28T06:21:45.024Z,93.85
2017-07-28T06:22:25.531Z,92.11
2017-07-28T06:23:06.285Z,95.01
2017-07-28T06:23:46.797Z,95.59
2017-07-28T06:24:27.324Z,93.47
2017-07-28T06:25:07.789Z,94.04
2017-07-28T06:25:48.374Z,90.86
2017-07-28T06:26:28.992Z,91.05
2017-07-28T06:27:09.449Z,91.25
2017-07-28T06:27:49.937Z,90.47
2017-07-28T06:28:30.450Z,89.7
2017-07-28T06:29:10.983Z,87.38
2017-07-28T06:29:51.452Z,87.38
2017-07-28T06:30:32.047Z,86.8
2017-07-28T06:31:12.543Z,87.77
2017-07-28T06:31:53.093Z,88.06
2017-07-28T06:32:33.620Z,89.99
2017-07-28T06:33:14.054Z,85.06
2017-07-28T06:33:54.552Z,86.13
2017-07-28T06:34:35.160Z,86.9
2017-07-28T06:35:15.652Z,87.77
2017-07-28T06:35:56.132Z,88.45
2017-07-28T06:36:36.678Z,87.34
2017-07-28T06:37:17.179Z,86.47
2017-07-28T06:37:57.622Z,89.7
2017-07-28T06:38:38.159Z,88.83
2017-07-28T06:39:18.629Z,87.96
2017-07-28T06:39:59.069Z,89.31
2017-07-28T06:40:39.626Z,85.45
2017-07-28T06:41:20.108Z,85.45
2017-07-28T06:42:00.631Z,85.74
2017-07-28T06:42:41.114Z,88.54
2017-07-28T06:43:21.703Z,89.22
2017-07-28T06:44:02.188Z,90.19
2017-07-28T06:44:42.709Z,89.79
2017-07-28T06:45:23.224Z,87.96
2017-07-28T06:46:03.696Z,85.89
2017-07-28T06:46:44.189Z,84.39
2017-07-28T06:47:24.750Z,85.26
2017-07-28T06:48:05.271Z,90.37
2017-07-28T06:48:45.802Z,89.89
2017-07-28T06:49:26.290Z,89.07
2017-07-28T06:50:06.863Z,91.67
2017-07-28T06:50:47.318Z,94.96
2017-07-28T06:51:27.870Z,88.01
2017-07-28T06:52:08.359Z,84.1
2017-07-28T06:52:48.806Z,83.81
2017-07-28T06:53:29.328Z,86.9
2017-07-28T06:54:09.901Z,84.39
2017-07-28T06:54:50.385Z,83.33
2017-07-28T06:55:30.903Z,90.67
2017-07-28T06:56:11.385Z,95.4
2017-07-28T06:56:51.930Z,92.89
2017-07-28T06:57:32.379Z,93.13
2017-07-28T06:58:12.915Z,85.21
2017-07-28T06:58:53.513Z,87.33
2017-07-28T06:59:33.966Z,94.19
2017-07-28T07:00:14.450Z,94.24
2017-07-28T07:00:54.954Z,89.64
2017-07-28T07:01:35.473Z,84.32
2017-07-28T07:02:16.046Z,88.87
2017-07-28T07:02:56.510Z,92.2
2017-07-28T07:03:36.956Z,92.16
2017-07-28T07:04:17.506Z,91.67
2017-07-28T07:04:57.989Z,89.45
2017-07-28T07:05:38.644Z,84.13
2017-07-28T07:06:19.151Z,85.14
2017-07-28T07:06:59.699Z,87.85
2017-07-28T07:07:40.170Z,89.69
2017-07-28T07:08:20.689Z,90.36
2017-07-28T07:09:01.157Z,89.53
2017-07-28T07:09:41.647Z,89.44
2017-07-28T07:10:22.149Z,81.37
2017-07-28T07:11:02.662Z,80.2
2017-07-28T07:11:43.158Z,80.88
2017-07-28T07:12:23.697Z,80.59
2017-07-28T07:13:04.203Z,79.24
2017-07-28T07:13:44.680Z,84.8
2017-07-28T07:14:25.203Z,88.13
2017-07-28T07:15:05.679Z,87.85
2017-07-28T07:15:46.180Z,87.31
2017-07-28T07:16:26.705Z,82.43
2017-07-28T07:17:07.170Z,79.08
2017-07-28T07:17:47.708Z,77.05
2017-07-28T07:18:28.205Z,80.79
2017-07-28T07:19:08.709Z,79.82
2017-07-28T07:19:49.193Z,84.84
2017-07-28T07:20:29.699Z,84.75
2017-07-28T07:21:10.198Z,84.66
2017-07-28T07:21:50.766Z,81.56
2017-07-28T07:22:31.259Z,82.23
2017-07-28T07:23:11.759Z,84.9
2017-07-28T07:23:52.305Z,80.65
2017-07-28T07:24:32.776Z,81.13
2017-07-28T07:25:13.310Z,80.07
2017-07-28T07:27:32.731Z,84.22
2017-07-28T07:28:13.528Z,82.2
2017-07-28T07:28:54.000Z,83.94
2017-07-28T07:29:34.519Z,83.06
2017-07-28T07:30:15.004Z,80.26
2017-07-28T07:30:55.464Z,83.74
2017-07-28T07:31:35.962Z,79.97
2017-07-28T07:32:16.455Z,85
2017-07-28T07:32:56.956Z,83.69
2017-07-28T07:33:37.434Z,81.95
2017-07-28T07:34:17.974Z,79.52
2017-07-28T07:34:58.566Z,82.91
2017-07-28T07:35:39.072Z,86.01
2017-07-28T07:36:19.555Z,83.05
2017-07-28T07:37:00.021Z,84.69
2017-07-28T07:37:40.583Z,83.25
2017-07-28T07:38:21.080Z,83.34
2017-07-28T07:39:01.619Z,81.6
2017-07-28T07:39:42.072Z,81.46
2017-07-28T07:40:22.590Z,81.37
2017-07-28T07:41:03.092Z,80.2
2017-07-28T07:41:44.016Z,81.56
2017-07-28T07:42:24.485Z,83.49
2017-07-28T07:43:05.028Z,80.69
2017-07-28T07:43:45.516Z,83.2
2017-07-28T07:44:26.088Z,86.2
2017-07-28T07:45:06.539Z,79.24
2017-07-28T07:45:47.033Z,85.62
2017-07-28T07:46:27.677Z,86.88
2017-07-28T07:47:08.256Z,87.75
2017-07-28T07:47:48.759Z,85.76
2017-07-28T07:48:29.346Z,85.66
2017-07-28T07:49:09.845Z,86.82
2017-07-28T07:49:50.652Z,84.69
2017-07-28T07:50:31.690Z,85.76
2017-07-28T07:51:12.151Z,87.21
2017-07-28T07:51:52.552Z,87.5
2017-07-28T07:52:33.105Z,79.17
2017-07-28T07:53:13.595Z,82.57
2017-07-28T07:53:54.208Z,82.8
2017-07-28T07:54:34.748Z,83.67
2017-07-28T07:55:15.210Z,84.35
2017-07-28T07:55:55.708Z,84.35
2017-07-28T07:56:36.233Z,84.35
2017-07-28T07:57:16.786Z,82.32
2017-07-28T07:57:57.237Z,81.64
2017-07-28T07:58:37.686Z,80.57
2017-07-28T07:59:18.221Z,81.25
2017-07-28T07:59:58.737Z,80.38
2017-07-28T08:00:39.608Z,79.5
2017-07-28T08:01:20.166Z,80.09
2017-07-28T08:02:00.635Z,80.67
2017-07-28T08:02:41.133Z,79.41
2017-07-28T08:03:21.648Z,79.35
2017-07-28T08:04:02.193Z,78.58
2017-07-28T08:04:42.738Z,72.09
2017-07-28T08:05:23.203Z,75.71
2017-07-28T08:06:03.819Z,77.55
2017-07-28T08:06:44.451Z,77.65
2017-07-28T08:07:24.844Z,78.91
2017-07-28T08:08:05.408Z,79.3
2017-07-28T08:08:45.977Z,78.33
2017-07-28T08:09:26.535Z,75.71
2017-07-28T08:10:07.021Z,72.99
2017-07-28T08:10:47.531Z,77.84
2017-07-28T08:11:28.038Z,79.49
2017-07-28T08:12:08.556Z,79.1
2017-07-28T08:12:49.040Z,78.23
2017-07-28T08:13:29.584Z,75.13
2017-07-28T08:14:10.065Z,74.26
2017-07-28T08:14:50.584Z,74.84
2017-07-28T08:15:31.109Z,75.13
2017-07-28T08:16:11.590Z,74.26
2017-07-28T08:16:52.122Z,73.42
2017-07-28T08:17:32.640Z,68.96
2017-07-28T08:18:13.080Z,74.1
2017-07-28T08:18:53.732Z,73.32
2017-07-28T08:19:34.176Z,72.64
2017-07-28T08:20:14.713Z,74.49
2017-07-28T08:20:55.296Z,75.71
2017-07-28T08:21:35.756Z,74.26
2017-07-28T08:22:16.297Z,74.26
2017-07-28T08:22:56.758Z,76.81
2017-07-28T08:23:37.278Z,73.32
2017-07-28T08:24:17.757Z,71.86
2017-07-28T08:24:58.215Z,72.16
2017-07-28T08:25:38.699Z,73.26
2017-07-28T08:26:19.203Z,72.58
2017-07-28T08:26:59.758Z,70.99
2017-07-28T08:27:40.300Z,73.8
2017-07-28T08:28:20.717Z,72.93
2017-07-28T08:29:01.275Z,73.42
2017-07-28T08:29:41.722Z,71.93
2017-07-28T08:30:22.243Z,73.86
2017-07-28T08:31:02.728Z,69.89
2017-07-28T08:31:43.263Z,69.99
2017-07-28T08:32:23.724Z,70.86
2017-07-28T08:33:04.238Z,72.02
2017-07-28T08:33:44.798Z,73.28
2017-07-28T08:34:25.276Z,72.51
2017-07-28T08:35:05.725Z,71.96
2017-07-28T08:35:46.237Z,70.21
2017-07-28T08:36:26.726Z,69.73
2017-07-28T08:37:07.259Z,68.86
2017-07-28T08:37:47.808Z,68.66
2017-07-28T08:38:28.310Z,68.37
2017-07-28T08:39:08.747Z,68.24
2017-07-28T08:39:49.297Z,68.34
2017-07-28T08:40:29.805Z,68.34
2017-07-28T08:41:10.372Z,68.82
2017-07-28T08:41:50.930Z,70.18
2017-07-28T08:42:31.455Z,70.67
2017-07-28T08:43:11.895Z,70.76
2017-07-28T08:43:52.412Z,69.95
2017-07-28T08:44:32.928Z,69.95
2017-07-28T08:45:13.498Z,69.85
2017-07-28T08:45:53.994Z,71.89
2017-07-28T08:46:34.484Z,72.38
2017-07-28T08:47:14.981Z,72.63
2017-07-28T08:47:55.536Z,74.08
2017-07-28T08:48:36.009Z,72.34
2017-07-28T08:49:16.484Z,73.41
2017-07-28T08:49:57.008Z,73.89
2017-07-28T08:50:37.404Z,72.83